sensor_id;sensor_type;location;lat;lon;timestamp;P1;durP1;ratioP1;P2;durP2;ratioP2
65387;SDS011;51992;53.528;49.474;2024-01-15T00:00:07;1.50;;;0.52;;
65387;SDS011;51992;53.528;49.474;2024-01-15T00:02:34;1.58;;;0.88;;
65387;SDS011;51992;53.528;49.474;2024-01-15T00:04:59;1.27;;;0.70;;
65387;SDS011;51992;53.528;49.474;2024-01-15T00:07:25;0.88;;;0.88;;
65387;SDS011;51992;53.528;49.474;2024-01-15T00:09:51;4.13;;;0.80;;
65387;SDS011;51992;53.528;49.474;2024-01-15T00:12:17;1.77;;;1.00;;
65387;SDS011;51992;53.528;49.474;2024-01-15T00:14:43;1.58;;;0.95;;
65387;SDS011;51992;53.528;49.474;2024-01-15T00:17:08;1.38;;;0.90;;
65387;SDS011;51992;53.528;49.474;2024-01-15T00:19:34;1.25;;;0.82;;
65387;SDS011;51992;53.528;49.474;2024-01-15T00:22:00;1.45;;;1.20;;
65387;SDS011;51992;53.528;49.474;2024-01-15T00:24:26;0.93;;;0.85;;
65387;SDS011;51992;53.528;49.474;2024-01-15T00:26:51;3.42;;;0.80;;
65387;SDS011;51992;53.528;49.474;2024-01-15T00:29:18;0.82;;;0.80;;
65387;SDS011;51992;53.528;49.474;2024-01-15T00:31:44;1.40;;;0.60;;
65387;SDS011;51992;53.528;49.474;2024-01-15T00:34:10;2.53;;;0.73;;
65387;SDS011;51992;53.528;49.474;2024-01-15T00:36:36;0.68;;;0.68;;
65387;SDS011;51992;53.528;49.474;2024-01-15T00:39:02;0.55;;;0.50;;
65387;SDS011;51992;53.528;49.474;2024-01-15T00:41:30;1.17;;;0.77;;
65387;SDS011;51992;53.528;49.474;2024-01-15T00:43:57;3.00;;;0.60;;
65387;SDS011;51992;53.528;49.474;2024-01-15T00:46:23;3.10;;;1.00;;
65387;SDS011;51992;53.528;49.474;2024-01-15T00:49:07;1.08;;;0.82;;
65387;SDS011;51992;53.528;49.474;2024-01-15T00:51:33;0.98;;;0.68;;
65387;SDS011;51992;53.528;49.474;2024-01-15T00:53:59;0.90;;;0.60;;
65387;SDS011;51992;53.528;49.474;2024-01-15T00:56:25;1.17;;;0.77;;
65387;SDS011;51992;53.528;49.474;2024-01-15T00:58:51;0.88;;;0.80;;
65387;SDS011;51992;53.528;49.474;2024-01-15T01:01:17;1.52;;;0.63;;
65387;SDS011;51992;53.528;49.474;2024-01-15T01:03:43;3.38;;;1.08;;
65387;SDS011;51992;53.528;49.474;2024-01-15T01:06:09;1.35;;;1.05;;
65387;SDS011;51992;53.528;49.474;2024-01-15T01:08:35;0.98;;;0.75;;
65387;SDS011;51992;53.528;49.474;2024-01-15T01:11:01;1.27;;;0.65;;
65387;SDS011;51992;53.528;49.474;2024-01-15T01:13:27;0.43;;;0.43;;
65387;SDS011;51992;53.528;49.474;2024-01-15T01:15:53;0.80;;;0.80;;
65387;SDS011;51992;53.528;49.474;2024-01-15T01:18:19;2.20;;;0.82;;
65387;SDS011;51992;53.528;49.474;2024-01-15T01:20:44;1.10;;;0.95;;
65387;SDS011;51992;53.528;49.474;2024-01-15T01:23:10;1.20;;;0.93;;
65387;SDS011;51992;53.528;49.474;2024-01-15T01:25:36;2.85;;;1.10;;
65387;SDS011;51992;53.528;49.474;2024-01-15T01:28:02;1.02;;;0.80;;
65387;SDS011;51992;53.528;49.474;2024-01-15T01:30:28;1.20;;;1.10;;
65387;SDS011;51992;53.528;49.474;2024-01-15T01:32:54;0.55;;;0.52;;
65387;SDS011;51992;53.528;49.474;2024-01-15T01:35:20;1.55;;;0.88;;
65387;SDS011;51992;53.528;49.474;2024-01-15T01:40:30;1.52;;;1.02;;
65387;SDS011;51992;53.528;49.474;2024-01-15T01:42:56;0.60;;;0.40;;
65387;SDS011;51992;53.528;49.474;2024-01-15T01:45:22;0.60;;;0.60;;
65387;SDS011;51992;53.528;49.474;2024-01-15T01:47:48;0.43;;;0.40;;
65387;SDS011;51992;53.528;49.474;2024-01-15T01:50:14;2.25;;;0.73;;
65387;SDS011;51992;53.528;49.474;2024-01-15T01:52:40;0.40;;;0.40;;
65387;SDS011;51992;53.528;49.474;2024-01-15T01:55:06;0.17;;;0.10;;
65387;SDS011;51992;53.528;49.474;2024-01-15T01:57:33;0.43;;;0.35;;
65387;SDS011;51992;53.528;49.474;2024-01-15T02:00:00;1.10;;;0.77;;
65387;SDS011;51992;53.528;49.474;2024-01-15T02:02:26;0.40;;;0.40;;
65387;SDS011;51992;53.528;49.474;2024-01-15T02:04:52;0.50;;;0.50;;
65387;SDS011;51992;53.528;49.474;2024-01-15T02:07:37;0.35;;;0.28;;
65387;SDS011;51992;53.528;49.474;2024-01-15T02:10:03;0.38;;;0.38;;
65387;SDS011;51992;53.528;49.474;2024-01-15T02:12:29;1.23;;;0.77;;
65387;SDS011;51992;53.528;49.474;2024-01-15T02:14:55;0.47;;;0.47;;
65387;SDS011;51992;53.528;49.474;2024-01-15T02:20:24;0.68;;;0.68;;
65387;SDS011;51992;53.528;49.474;2024-01-15T02:22:50;0.47;;;0.47;;
65387;SDS011;51992;53.528;49.474;2024-01-15T02:25:16;1.92;;;0.63;;
65387;SDS011;51992;53.528;49.474;2024-01-15T02:27:42;3.45;;;1.00;;
65387;SDS011;51992;53.528;49.474;2024-01-15T02:30:09;0.77;;;0.73;;
65387;SDS011;51992;53.528;49.474;2024-01-15T02:32:36;0.60;;;0.60;;
65387;SDS011;51992;53.528;49.474;2024-01-15T02:37:47;0.75;;;0.60;;
65387;SDS011;51992;53.528;49.474;2024-01-15T02:40:13;1.13;;;0.98;;
65387;SDS011;51992;53.528;49.474;2024-01-15T02:42:38;1.02;;;0.70;;
65387;SDS011;51992;53.528;49.474;2024-01-15T02:47:49;1.75;;;1.08;;
65387;SDS011;51992;53.528;49.474;2024-01-15T02:50:15;1.60;;;1.10;;
65387;SDS011;51992;53.528;49.474;2024-01-15T02:52:43;1.15;;;1.00;;
65387;SDS011;51992;53.528;49.474;2024-01-15T02:55:28;1.30;;;0.95;;
65387;SDS011;51992;53.528;49.474;2024-01-15T02:57:54;1.60;;;1.30;;
65387;SDS011;51992;53.528;49.474;2024-01-15T03:00:20;1.33;;;1.10;;
65387;SDS011;51992;53.528;49.474;2024-01-15T03:02:46;1.08;;;0.70;;
65387;SDS011;51992;53.528;49.474;2024-01-15T03:05:12;1.48;;;0.60;;
65387;SDS011;51992;53.528;49.474;2024-01-15T03:07:37;1.65;;;0.88;;
65387;SDS011;51992;53.528;49.474;2024-01-15T03:10:04;1.05;;;0.55;;
65387;SDS011;51992;53.528;49.474;2024-01-15T03:12:30;0.80;;;0.80;;
65387;SDS011;51992;53.528;49.474;2024-01-15T03:14:56;3.22;;;1.10;;
65387;SDS011;51992;53.528;49.474;2024-01-15T03:20:06;1.13;;;1.05;;
65387;SDS011;51992;53.528;49.474;2024-01-15T03:28:01;0.10;;;0.10;;
65387;SDS011;51992;53.528;49.474;2024-01-15T03:30:27;0.82;;;0.82;;
65387;SDS011;51992;53.528;49.474;2024-01-15T03:32:53;0.50;;;0.35;;
65387;SDS011;51992;53.528;49.474;2024-01-15T03:35:19;1.42;;;0.47;;
65387;SDS011;51992;53.528;49.474;2024-01-15T03:37:45;0.63;;;0.50;;
65387;SDS011;51992;53.528;49.474;2024-01-15T03:40:11;0.38;;;0.38;;
65387;SDS011;51992;53.528;49.474;2024-01-15T03:42:37;1.85;;;0.55;;
65387;SDS011;51992;53.528;49.474;2024-01-15T03:47:47;0.47;;;0.47;;
65387;SDS011;51992;53.528;49.474;2024-01-15T03:50:13;0.17;;;0.17;;
65387;SDS011;51992;53.528;49.474;2024-01-15T03:52:39;0.60;;;0.50;;
65387;SDS011;51992;53.528;49.474;2024-01-15T03:55:05;0.60;;;0.60;;
65387;SDS011;51992;53.528;49.474;2024-01-15T03:57:31;0.30;;;0.30;;
65387;SDS011;51992;53.528;49.474;2024-01-15T03:59:56;0.10;;;0.10;;
65387;SDS011;51992;53.528;49.474;2024-01-15T04:02:22;0.40;;;0.40;;
65387;SDS011;51992;53.528;49.474;2024-01-15T04:04:49;0.25;;;0.25;;
65387;SDS011;51992;53.528;49.474;2024-01-15T04:07:14;0.43;;;0.20;;
65387;SDS011;51992;53.528;49.474;2024-01-15T04:09:40;0.65;;;0.65;;
65387;SDS011;51992;53.528;49.474;2024-01-15T04:12:06;0.82;;;0.30;;
65387;SDS011;51992;53.528;49.474;2024-01-15T04:20:01;0.52;;;0.47;;
65387;SDS011;51992;53.528;49.474;2024-01-15T04:22:26;1.23;;;0.85;;
65387;SDS011;51992;53.528;49.474;2024-01-15T04:24:52;0.57;;;0.30;;
65387;SDS011;51992;53.528;49.474;2024-01-15T04:27:18;0.30;;;0.30;;
65387;SDS011;51992;53.528;49.474;2024-01-15T04:29:46;0.93;;;0.43;;
65387;SDS011;51992;53.528;49.474;2024-01-15T04:32:13;0.40;;;0.40;;
65387;SDS011;51992;53.528;49.474;2024-01-15T04:34:42;0.50;;;0.30;;
65387;SDS011;51992;53.528;49.474;2024-01-15T04:37:08;0.40;;;0.40;;
65387;SDS011;51992;53.528;49.474;2024-01-15T04:39:36;0.65;;;0.40;;
65387;SDS011;51992;53.528;49.474;2024-01-15T04:42:03;0.13;;;0.13;;
65387;SDS011;51992;53.528;49.474;2024-01-15T04:44:29;0.30;;;0.30;;
65387;SDS011;51992;53.528;49.474;2024-01-15T04:46:55;1.30;;;0.40;;
65387;SDS011;51992;53.528;49.474;2024-01-15T04:49:21;0.57;;;0.57;;
65387;SDS011;51992;53.528;49.474;2024-01-15T04:51:47;0.45;;;0.45;;
65387;SDS011;51992;53.528;49.474;2024-01-15T04:54:13;1.27;;;0.68;;
65387;SDS011;51992;53.528;49.474;2024-01-15T04:56:43;0.22;;;0.22;;
65387;SDS011;51992;53.528;49.474;2024-01-15T04:59:10;0.10;;;0.10;;
65387;SDS011;51992;53.528;49.474;2024-01-15T05:01:36;0.40;;;0.17;;
65387;SDS011;51992;53.528;49.474;2024-01-15T05:04:02;0.00;;;0.00;;
65387;SDS011;51992;53.528;49.474;2024-01-15T05:06:28;0.60;;;0.60;;
65387;SDS011;51992;53.528;49.474;2024-01-15T05:08:54;1.38;;;0.60;;
65387;SDS011;51992;53.528;49.474;2024-01-15T05:14:04;0.30;;;0.30;;
65387;SDS011;51992;53.528;49.474;2024-01-15T05:16:30;0.30;;;0.30;;
65387;SDS011;51992;53.528;49.474;2024-01-15T05:18:57;0.47;;;0.20;;
65387;SDS011;51992;53.528;49.474;2024-01-15T05:21:23;0.20;;;0.20;;
65387;SDS011;51992;53.528;49.474;2024-01-15T05:23:49;0.20;;;0.20;;
65387;SDS011;51992;53.528;49.474;2024-01-15T05:26:14;1.85;;;0.50;;
65387;SDS011;51992;53.528;49.474;2024-01-15T05:28:41;0.20;;;0.20;;
65387;SDS011;51992;53.528;49.474;2024-01-15T05:31:08;0.25;;;0.25;;
65387;SDS011;51992;53.528;49.474;2024-01-15T05:39:04;1.30;;;0.68;;
65387;SDS011;51992;53.528;49.474;2024-01-15T05:41:30;0.40;;;0.30;;
65387;SDS011;51992;53.528;49.474;2024-01-15T05:43:56;0.00;;;0.00;;
65387;SDS011;51992;53.528;49.474;2024-01-15T05:46:22;0.10;;;0.10;;
65387;SDS011;51992;53.528;49.474;2024-01-15T05:48:48;0.08;;;0.08;;
65387;SDS011;51992;53.528;49.474;2024-01-15T05:51:14;0.20;;;0.20;;
65387;SDS011;51992;53.528;49.474;2024-01-15T05:53:40;0.10;;;0.10;;
65387;SDS011;51992;53.528;49.474;2024-01-15T05:56:08;0.15;;;0.00;;
65387;SDS011;51992;53.528;49.474;2024-01-15T05:58:35;0.10;;;0.10;;
65387;SDS011;51992;53.528;49.474;2024-01-15T06:01:02;0.00;;;0.00;;
65387;SDS011;51992;53.528;49.474;2024-01-15T06:03:27;0.10;;;0.08;;
65387;SDS011;51992;53.528;49.474;2024-01-15T06:08:38;0.00;;;0.00;;
65387;SDS011;51992;53.528;49.474;2024-01-15T06:11:04;0.05;;;0.05;;
65387;SDS011;51992;53.528;49.474;2024-01-15T06:13:31;0.17;;;0.17;;
65387;SDS011;51992;53.528;49.474;2024-01-15T06:15:57;0.13;;;0.13;;
65387;SDS011;51992;53.528;49.474;2024-01-15T06:18:23;0.00;;;0.00;;
65387;SDS011;51992;53.528;49.474;2024-01-15T06:20:49;0.00;;;0.00;;
65387;SDS011;51992;53.528;49.474;2024-01-15T06:23:15;0.00;;;0.00;;
65387;SDS011;51992;53.528;49.474;2024-01-15T06:26:00;0.13;;;0.13;;
65387;SDS011;51992;53.528;49.474;2024-01-15T06:28:29;0.10;;;0.10;;
65387;SDS011;51992;53.528;49.474;2024-01-15T06:30:55;0.28;;;0.28;;
65387;SDS011;51992;53.528;49.474;2024-01-15T06:33:21;0.13;;;0.13;;
65387;SDS011;51992;53.528;49.474;2024-01-15T06:35:47;0.00;;;0.00;;
65387;SDS011;51992;53.528;49.474;2024-01-15T06:38:13;0.00;;;0.00;;
65387;SDS011;51992;53.528;49.474;2024-01-15T06:40:39;0.10;;;0.10;;
65387;SDS011;51992;53.528;49.474;2024-01-15T06:43:13;0.10;;;0.10;;
65387;SDS011;51992;53.528;49.474;2024-01-15T06:45:38;0.00;;;0.00;;
65387;SDS011;51992;53.528;49.474;2024-01-15T06:48:04;0.00;;;0.00;;
65387;SDS011;51992;53.528;49.474;2024-01-15T06:50:30;0.00;;;0.00;;
65387;SDS011;51992;53.528;49.474;2024-01-15T06:53:15;0.00;;;0.00;;
65387;SDS011;51992;53.528;49.474;2024-01-15T06:55:40;0.13;;;0.13;;
65387;SDS011;51992;53.528;49.474;2024-01-15T06:58:06;0.00;;;0.00;;
65387;SDS011;51992;53.528;49.474;2024-01-15T07:00:32;0.05;;;0.05;;
65387;SDS011;51992;53.528;49.474;2024-01-15T07:02:58;0.00;;;0.00;;
65387;SDS011;51992;53.528;49.474;2024-01-15T07:05:24;0.08;;;0.08;;
65387;SDS011;51992;53.528;49.474;2024-01-15T07:07:50;0.25;;;0.25;;
65387;SDS011;51992;53.528;49.474;2024-01-15T07:10:16;0.00;;;0.00;;
65387;SDS011;51992;53.528;49.474;2024-01-15T07:12:42;1.65;;;0.75;;
65387;SDS011;51992;53.528;49.474;2024-01-15T07:15:08;0.00;;;0.00;;
65387;SDS011;51992;53.528;49.474;2024-01-15T07:17:35;0.10;;;0.10;;
65387;SDS011;51992;53.528;49.474;2024-01-15T07:20:01;0.00;;;0.00;;
65387;SDS011;51992;53.528;49.474;2024-01-15T07:22:27;0.93;;;0.52;;
65387;SDS011;51992;53.528;49.474;2024-01-15T07:24:53;0.20;;;0.20;;
65387;SDS011;51992;53.528;49.474;2024-01-15T07:27:20;0.10;;;0.10;;
65387;SDS011;51992;53.528;49.474;2024-01-15T07:29:45;0.00;;;0.00;;
65387;SDS011;51992;53.528;49.474;2024-01-15T07:32:11;0.40;;;0.35;;
65387;SDS011;51992;53.528;49.474;2024-01-15T07:34:37;0.00;;;0.00;;
65387;SDS011;51992;53.528;49.474;2024-01-15T07:37:03;0.00;;;0.00;;
65387;SDS011;51992;53.528;49.474;2024-01-15T07:42:34;0.17;;;0.17;;
65387;SDS011;51992;53.528;49.474;2024-01-15T07:45:00;0.32;;;0.25;;
65387;SDS011;51992;53.528;49.474;2024-01-15T07:47:44;0.10;;;0.10;;
65387;SDS011;51992;53.528;49.474;2024-01-15T07:50:10;0.10;;;0.10;;
65387;SDS011;51992;53.528;49.474;2024-01-15T07:52:36;0.05;;;0.00;;
65387;SDS011;51992;53.528;49.474;2024-01-15T07:55:02;0.20;;;0.20;;
65387;SDS011;51992;53.528;49.474;2024-01-15T07:57:31;0.10;;;0.10;;
65387;SDS011;51992;53.528;49.474;2024-01-15T07:59:57;0.60;;;0.60;;
65387;SDS011;51992;53.528;49.474;2024-01-15T08:02:23;0.00;;;0.00;;
65387;SDS011;51992;53.528;49.474;2024-01-15T08:04:49;0.00;;;0.00;;
65387;SDS011;51992;53.528;49.474;2024-01-15T08:07:16;0.47;;;0.47;;
65387;SDS011;51992;53.528;49.474;2024-01-15T08:09:42;0.00;;;0.00;;
65387;SDS011;51992;53.528;49.474;2024-01-15T08:12:08;0.17;;;0.17;;
65387;SDS011;51992;53.528;49.474;2024-01-15T08:14:35;0.10;;;0.00;;
65387;SDS011;51992;53.528;49.474;2024-01-15T08:17:01;0.00;;;0.00;;
65387;SDS011;51992;53.528;49.474;2024-01-15T08:19:27;0.15;;;0.15;;
65387;SDS011;51992;53.528;49.474;2024-01-15T08:21:54;0.00;;;0.00;;
65387;SDS011;51992;53.528;49.474;2024-01-15T08:24:20;0.00;;;0.00;;
65387;SDS011;51992;53.528;49.474;2024-01-15T08:26:47;0.17;;;0.17;;
65387;SDS011;51992;53.528;49.474;2024-01-15T08:29:13;0.03;;;0.03;;
65387;SDS011;51992;53.528;49.474;2024-01-15T08:31:39;0.20;;;0.20;;
65387;SDS011;51992;53.528;49.474;2024-01-15T08:34:23;0.88;;;0.73;;
65387;SDS011;51992;53.528;49.474;2024-01-15T08:37:08;0.00;;;0.00;;
65387;SDS011;51992;53.528;49.474;2024-01-15T08:39:34;0.13;;;0.13;;
65387;SDS011;51992;53.528;49.474;2024-01-15T08:42:00;0.10;;;0.10;;
65387;SDS011;51992;53.528;49.474;2024-01-15T08:44:26;0.10;;;0.10;;
65387;SDS011;51992;53.528;49.474;2024-01-15T08:46:52;0.13;;;0.13;;
65387;SDS011;51992;53.528;49.474;2024-01-15T08:49:18;0.00;;;0.00;;
65387;SDS011;51992;53.528;49.474;2024-01-15T08:51:44;0.10;;;0.10;;
65387;SDS011;51992;53.528;49.474;2024-01-15T08:54:10;0.10;;;0.10;;
65387;SDS011;51992;53.528;49.474;2024-01-15T08:56:36;0.17;;;0.17;;
65387;SDS011;51992;53.528;49.474;2024-01-15T08:59:02;0.08;;;0.08;;
65387;SDS011;51992;53.528;49.474;2024-01-15T09:01:28;0.00;;;0.00;;
65387;SDS011;51992;53.528;49.474;2024-01-15T09:03:54;0.00;;;0.00;;
65387;SDS011;51992;53.528;49.474;2024-01-15T09:06:21;0.00;;;0.00;;
65387;SDS011;51992;53.528;49.474;2024-01-15T09:08:47;0.20;;;0.20;;
65387;SDS011;51992;53.528;49.474;2024-01-15T09:11:13;0.10;;;0.10;;
65387;SDS011;51992;53.528;49.474;2024-01-15T09:13:39;0.22;;;0.05;;
65387;SDS011;51992;53.528;49.474;2024-01-15T09:16:05;0.10;;;0.10;;
65387;SDS011;51992;53.528;49.474;2024-01-15T09:18:31;0.22;;;0.20;;
65387;SDS011;51992;53.528;49.474;2024-01-15T09:20:57;0.00;;;0.00;;
65387;SDS011;51992;53.528;49.474;2024-01-15T09:23:23;1.95;;;0.47;;
65387;SDS011;51992;53.528;49.474;2024-01-15T09:25:49;0.05;;;0.03;;
65387;SDS011;51992;53.528;49.474;2024-01-15T09:28:15;0.00;;;0.00;;
65387;SDS011;51992;53.528;49.474;2024-01-15T09:30:41;0.20;;;0.20;;
65387;SDS011;51992;53.528;49.474;2024-01-15T09:33:07;0.00;;;0.00;;
65387;SDS011;51992;53.528;49.474;2024-01-15T09:35:33;0.00;;;0.00;;
65387;SDS011;51992;53.528;49.474;2024-01-15T09:38:19;0.10;;;0.10;;
65387;SDS011;51992;53.528;49.474;2024-01-15T09:40:45;0.40;;;0.40;;
65387;SDS011;51992;53.528;49.474;2024-01-15T09:43:12;0.05;;;0.05;;
65387;SDS011;51992;53.528;49.474;2024-01-15T09:45:39;0.13;;;0.05;;
65387;SDS011;51992;53.528;49.474;2024-01-15T09:50:50;0.08;;;0.08;;
65387;SDS011;51992;53.528;49.474;2024-01-15T09:53:17;0.10;;;0.10;;
65387;SDS011;51992;53.528;49.474;2024-01-15T09:55:43;0.00;;;0.00;;
65387;SDS011;51992;53.528;49.474;2024-01-15T09:58:09;0.00;;;0.00;;
65387;SDS011;51992;53.528;49.474;2024-01-15T10:00:35;0.60;;;0.60;;
65387;SDS011;51992;53.528;49.474;2024-01-15T10:03:04;0.03;;;0.03;;
65387;SDS011;51992;53.528;49.474;2024-01-15T10:05:30;0.10;;;0.10;;
65387;SDS011;51992;53.528;49.474;2024-01-15T10:07:56;0.10;;;0.10;;
65387;SDS011;51992;53.528;49.474;2024-01-15T10:10:41;0.10;;;0.10;;
65387;SDS011;51992;53.528;49.474;2024-01-15T10:13:26;0.70;;;0.20;;
65387;SDS011;51992;53.528;49.474;2024-01-15T10:15:52;0.00;;;0.00;;
65387;SDS011;51992;53.528;49.474;2024-01-15T10:18:18;0.00;;;0.00;;
65387;SDS011;51992;53.528;49.474;2024-01-15T10:20:45;0.28;;;0.28;;
65387;SDS011;51992;53.528;49.474;2024-01-15T10:23:11;0.00;;;0.00;;
65387;SDS011;51992;53.528;49.474;2024-01-15T10:25:37;0.00;;;0.00;;
65387;SDS011;51992;53.528;49.474;2024-01-15T10:28:03;0.20;;;0.20;;
65387;SDS011;51992;53.528;49.474;2024-01-15T10:30:51;0.17;;;0.17;;
65387;SDS011;51992;53.528;49.474;2024-01-15T10:33:19;0.10;;;0.10;;
65387;SDS011;51992;53.528;49.474;2024-01-15T10:35:47;0.00;;;0.00;;
65387;SDS011;51992;53.528;49.474;2024-01-15T10:38:14;0.10;;;0.10;;
65387;SDS011;51992;53.528;49.474;2024-01-15T10:40:41;0.47;;;0.47;;
65387;SDS011;51992;53.528;49.474;2024-01-15T10:43:08;0.00;;;0.00;;
65387;SDS011;51992;53.528;49.474;2024-01-15T10:45:34;0.22;;;0.20;;
65387;SDS011;51992;53.528;49.474;2024-01-15T10:48:00;0.30;;;0.30;;
65387;SDS011;51992;53.528;49.474;2024-01-15T10:50:28;0.05;;;0.05;;
65387;SDS011;51992;53.528;49.474;2024-01-15T10:52:55;0.20;;;0.20;;
65387;SDS011;51992;53.528;49.474;2024-01-15T10:55:23;0.22;;;0.22;;
65387;SDS011;51992;53.528;49.474;2024-01-15T10:58:08;0.35;;;0.20;;
65387;SDS011;51992;53.528;49.474;2024-01-15T11:00:35;0.00;;;0.00;;
65387;SDS011;51992;53.528;49.474;2024-01-15T11:03:05;0.00;;;0.00;;
65387;SDS011;51992;53.528;49.474;2024-01-15T11:05:38;0.47;;;0.47;;
65387;SDS011;51992;53.528;49.474;2024-01-15T11:08:07;0.00;;;0.00;;
65387;SDS011;51992;53.528;49.474;2024-01-15T11:13:18;0.00;;;0.00;;
65387;SDS011;51992;53.528;49.474;2024-01-15T11:16:02;0.50;;;0.45;;
65387;SDS011;51992;53.528;49.474;2024-01-15T11:18:30;0.10;;;0.10;;
65387;SDS011;51992;53.528;49.474;2024-01-15T11:23:47;0.00;;;0.00;;
65387;SDS011;51992;53.528;49.474;2024-01-15T11:29:28;0.00;;;0.00;;
65387;SDS011;51992;53.528;49.474;2024-01-15T11:34:13;0.00;;;0.00;;
65387;SDS011;51992;53.528;49.474;2024-01-15T11:41:56;0.20;;;0.20;;
65387;SDS011;51992;53.528;49.474;2024-01-15T11:44:22;0.17;;;0.17;;
65387;SDS011;51992;53.528;49.474;2024-01-15T11:49:25;0.22;;;0.22;;
65387;SDS011;51992;53.528;49.474;2024-01-15T11:52:11;0.15;;;0.15;;
65387;SDS011;51992;53.528;49.474;2024-01-15T11:54:58;0.00;;;0.00;;
65387;SDS011;51992;53.528;49.474;2024-01-15T11:57:51;0.00;;;0.00;;
65387;SDS011;51992;53.528;49.474;2024-01-15T12:00:43;0.00;;;0.00;;
65387;SDS011;51992;53.528;49.474;2024-01-15T12:03:09;1.35;;;0.60;;
65387;SDS011;51992;53.528;49.474;2024-01-15T12:05:36;0.20;;;0.20;;
65387;SDS011;51992;53.528;49.474;2024-01-15T12:08:02;0.20;;;0.20;;
65387;SDS011;51992;53.528;49.474;2024-01-15T12:10:29;0.08;;;0.08;;
65387;SDS011;51992;53.528;49.474;2024-01-15T12:12:59;0.28;;;0.28;;
65387;SDS011;51992;53.528;49.474;2024-01-15T12:15:29;0.20;;;0.20;;
65387;SDS011;51992;53.528;49.474;2024-01-15T12:18:14;0.10;;;0.10;;
65387;SDS011;51992;53.528;49.474;2024-01-15T12:20:41;0.03;;;0.03;;
65387;SDS011;51992;53.528;49.474;2024-01-15T12:23:08;1.05;;;0.65;;
65387;SDS011;51992;53.528;49.474;2024-01-15T12:25:34;0.15;;;0.10;;
65387;SDS011;51992;53.528;49.474;2024-01-15T12:28:00;0.20;;;0.20;;
65387;SDS011;51992;53.528;49.474;2024-01-15T12:30:26;0.40;;;0.40;;
65387;SDS011;51992;53.528;49.474;2024-01-15T12:32:52;0.38;;;0.38;;
65387;SDS011;51992;53.528;49.474;2024-01-15T12:35:21;0.28;;;0.28;;
65387;SDS011;51992;53.528;49.474;2024-01-15T12:37:47;0.55;;;0.50;;
65387;SDS011;51992;53.528;49.474;2024-01-15T12:40:13;0.20;;;0.20;;
65387;SDS011;51992;53.528;49.474;2024-01-15T12:42:40;0.20;;;0.20;;
65387;SDS011;51992;53.528;49.474;2024-01-15T12:45:24;0.30;;;0.30;;
65387;SDS011;51992;53.528;49.474;2024-01-15T12:48:08;0.65;;;0.65;;
65387;SDS011;51992;53.528;49.474;2024-01-15T12:53:19;0.52;;;0.52;;
65387;SDS011;51992;53.528;49.474;2024-01-15T12:55:44;0.28;;;0.28;;
65387;SDS011;51992;53.528;49.474;2024-01-15T12:58:10;0.68;;;0.68;;
65387;SDS011;51992;53.528;49.474;2024-01-15T13:00:54;0.32;;;0.32;;
65387;SDS011;51992;53.528;49.474;2024-01-15T13:03:22;0.22;;;0.22;;
65387;SDS011;51992;53.528;49.474;2024-01-15T13:05:48;0.17;;;0.17;;
65387;SDS011;51992;53.528;49.474;2024-01-15T13:08:14;0.20;;;0.20;;
65387;SDS011;51992;53.528;49.474;2024-01-15T13:10:40;0.70;;;0.70;;
65387;SDS011;51992;53.528;49.474;2024-01-15T13:13:24;0.50;;;0.50;;
65387;SDS011;51992;53.528;49.474;2024-01-15T13:15:50;0.57;;;0.57;;
65387;SDS011;51992;53.528;49.474;2024-01-15T13:23:45;0.50;;;0.50;;
65387;SDS011;51992;53.528;49.474;2024-01-15T13:28:55;0.22;;;0.22;;
65387;SDS011;51992;53.528;49.474;2024-01-15T13:31:21;0.20;;;0.20;;
65387;SDS011;51992;53.528;49.474;2024-01-15T13:33:46;0.32;;;0.32;;
65387;SDS011;51992;53.528;49.474;2024-01-15T13:36:12;0.57;;;0.57;;
65387;SDS011;51992;53.528;49.474;2024-01-15T13:38:38;0.20;;;0.20;;
65387;SDS011;51992;53.528;49.474;2024-01-15T13:41:04;0.80;;;0.80;;
65387;SDS011;51992;53.528;49.474;2024-01-15T13:43:33;0.50;;;0.50;;
65387;SDS011;51992;53.528;49.474;2024-01-15T13:45:59;0.93;;;0.50;;
65387;SDS011;51992;53.528;49.474;2024-01-15T13:48:25;1.02;;;0.93;;
65387;SDS011;51992;53.528;49.474;2024-01-15T13:50:52;0.38;;;0.38;;
65387;SDS011;51992;53.528;49.474;2024-01-15T13:53:18;0.63;;;0.63;;
65387;SDS011;51992;53.528;49.474;2024-01-15T13:55:44;1.08;;;0.73;;
65387;SDS011;51992;53.528;49.474;2024-01-15T13:58:11;0.98;;;0.98;;
65387;SDS011;51992;53.528;49.474;2024-01-15T14:00:37;0.40;;;0.40;;
65387;SDS011;51992;53.528;49.474;2024-01-15T14:03:03;0.73;;;0.73;;
65387;SDS011;51992;53.528;49.474;2024-01-15T14:05:29;0.60;;;0.60;;
65387;SDS011;51992;53.528;49.474;2024-01-15T14:07:55;0.30;;;0.30;;
65387;SDS011;51992;53.528;49.474;2024-01-15T14:10:21;0.55;;;0.55;;
65387;SDS011;51992;53.528;49.474;2024-01-15T14:12:47;0.60;;;0.60;;
65387;SDS011;51992;53.528;49.474;2024-01-15T14:15:12;0.30;;;0.30;;
65387;SDS011;51992;53.528;49.474;2024-01-15T14:17:38;2.33;;;0.90;;
65387;SDS011;51992;53.528;49.474;2024-01-15T14:20:05;0.40;;;0.40;;
65387;SDS011;51992;53.528;49.474;2024-01-15T14:22:32;0.40;;;0.40;;
65387;SDS011;51992;53.528;49.474;2024-01-15T14:24:57;0.88;;;0.57;;
65387;SDS011;51992;53.528;49.474;2024-01-15T14:27:24;0.50;;;0.50;;
65387;SDS011;51992;53.528;49.474;2024-01-15T14:29:49;0.30;;;0.30;;
65387;SDS011;51992;53.528;49.474;2024-01-15T14:32:15;0.45;;;0.45;;
65387;SDS011;51992;53.528;49.474;2024-01-15T14:34:41;1.55;;;0.88;;
65387;SDS011;51992;53.528;49.474;2024-01-15T14:37:07;0.40;;;0.40;;
65387;SDS011;51992;53.528;49.474;2024-01-15T14:39:33;0.88;;;0.85;;
65387;SDS011;51992;53.528;49.474;2024-01-15T14:42:00;0.43;;;0.43;;
65387;SDS011;51992;53.528;49.474;2024-01-15T14:44:26;0.20;;;0.20;;
65387;SDS011;51992;53.528;49.474;2024-01-15T14:46:54;0.35;;;0.35;;
65387;SDS011;51992;53.528;49.474;2024-01-15T14:49:21;0.47;;;0.47;;
65387;SDS011;51992;53.528;49.474;2024-01-15T14:51:47;0.40;;;0.40;;
65387;SDS011;51992;53.528;49.474;2024-01-15T14:54:14;0.25;;;0.25;;
65387;SDS011;51992;53.528;49.474;2024-01-15T14:56:40;0.47;;;0.47;;
65387;SDS011;51992;53.528;49.474;2024-01-15T14:59:06;0.32;;;0.32;;
65387;SDS011;51992;53.528;49.474;2024-01-15T15:01:33;0.50;;;0.50;;
65387;SDS011;51992;53.528;49.474;2024-01-15T15:03:59;0.73;;;0.73;;
65387;SDS011;51992;53.528;49.474;2024-01-15T15:09:10;0.10;;;0.10;;
65387;SDS011;51992;53.528;49.474;2024-01-15T15:11:37;0.43;;;0.43;;
65387;SDS011;51992;53.528;49.474;2024-01-15T15:14:22;1.52;;;1.40;;
65387;SDS011;51992;53.528;49.474;2024-01-15T15:16:48;0.30;;;0.30;;
65387;SDS011;51992;53.528;49.474;2024-01-15T15:19:14;0.05;;;0.05;;
65387;SDS011;51992;53.528;49.474;2024-01-15T15:21:40;0.30;;;0.30;;
65387;SDS011;51992;53.528;49.474;2024-01-15T15:24:06;2.28;;;0.63;;
65387;SDS011;51992;53.528;49.474;2024-01-15T15:29:16;0.25;;;0.25;;
65387;SDS011;51992;53.528;49.474;2024-01-15T15:31:43;0.30;;;0.30;;
65387;SDS011;51992;53.528;49.474;2024-01-15T15:34:09;0.57;;;0.38;;
65387;SDS011;51992;53.528;49.474;2024-01-15T15:36:35;0.45;;;0.45;;
65387;SDS011;51992;53.528;49.474;2024-01-15T15:39:01;0.75;;;0.73;;
65387;SDS011;51992;53.528;49.474;2024-01-15T15:41:27;0.28;;;0.28;;
65387;SDS011;51992;53.528;49.474;2024-01-15T15:43:56;0.25;;;0.22;;
65387;SDS011;51992;53.528;49.474;2024-01-15T15:46:22;0.20;;;0.20;;
65387;SDS011;51992;53.528;49.474;2024-01-15T15:48:48;0.20;;;0.20;;
65387;SDS011;51992;53.528;49.474;2024-01-15T15:51:14;0.55;;;0.55;;
65387;SDS011;51992;53.528;49.474;2024-01-15T15:53:39;0.10;;;0.10;;